Hillsboro, Oregon
Current Conditions -  °F | °C
As of 10:53 PM on Friday 28 Nov 2014 (Local Time) from KHIO Reporting Station
Overcast Overcast  
Wind Chill: 43°   Ceiling: 3000
Heat Index: 43°   Visibility: 10mi
Dew Point: 41°   Wind: 0mph
Humidity: 93%   Direction: NA
Pressure: 29.61"   Gusts: NA
Location:  45.52°N, 122.99°W
Report Text: KHIO 290653Z AUTO 00000KT 10SM FEW025 BKN030 OVC060 06/05 A2961 RMK AO2 RAE06B28E51 SLP027 P0001 T00610050
Loading
Personal Weather Stations






























Interactive Weather Map New forecast layout! Learn more

10-Day Weather Forecast

Advertisements
Track Severe Weather on mobile